Time;durP1;ratioP1;P1;durP2;ratioP2;P2;SDS_P1;SDS_P2;PMS_P1;PMS_P2;Temp;Humidity;BMP_temperature;BMP_pressure;BME280_temperature;BME280_humidity;BME280_pressure;Samples;Min_cycle;Max_cycle;Signal;HPM_P1;HPM_P2
2021/11/25 00:00:29;;;;;;;;;;;;;;;;;;2081434;28;20365;-44
2021/11/25 00:01:30;;;;;;;;;;;;;;;;;;2074289;28;19932;-43
2021/11/25 00:02:31;;;;;;;;;;;;;;;;;;2081348;28;20325;-49
2021/11/25 00:03:32;;;;;;;;;;;;;;;;;;2067380;28;19988;-49
2021/11/25 00:04:33;;;;;;;;;;;;;;;;;;2072426;28;19944;-49
2021/11/25 00:05:34;;;;;;;;;;;;;;;;;;2072964;28;20023;-48
2021/11/25 00:06:35;;;;;;;;;;;;;;;;;;2073137;28;19929;-49
2021/11/25 00:07:36;;;;;;;;;;;;;;;;;;2073017;28;20016;-49
2021/11/25 00:08:37;;;;;;;;;;;;;;;;;;2081381;28;19925;-49
2021/11/25 00:09:37;;;;;;;;;;;;;;;;;;2081241;28;19972;-49
2021/11/25 00:10:40;;;;;;;;;;;;;;;;;;2073998;28;19948;-48
2021/11/25 00:11:41;;;;;;;;;;;;;;;;;;2073181;28;20016;-48
2021/11/25 00:12:42;;;;;;;;;;;;;;;;;;2072514;28;20338;-51
2021/11/25 00:13:42;;;;;;;;;;;;;;;;;;2074165;28;20007;-48
2021/11/25 00:14:43;;;;;;;;;;;;;;;;;;2081282;28;19972;-51
2021/11/25 00:15:44;;;;;;;;;;;;;;;;;;2079701;28;20014;-49
2021/11/25 00:16:46;;;;;;;;;;;;;;;;;;2075784;28;19945;-50
2021/11/25 00:17:47;;;;;;;;;;;;;;;;;;2081215;28;19987;-50
2021/11/25 00:18:48;;;;;;;;;;;;;;;;;;2078348;28;19924;-48
2021/11/25 00:19:49;;;;;;;;;;;;;;;;;;2077426;28;19965;-44
2021/11/25 00:20:50;;;;;;;;;;;;;;;;;;2081281;28;20309;-44
2021/11/25 00:21:50;;;;;;;;;;;;;;;;;;2077097;28;20015;-50
2021/11/25 00:22:51;;;;;;;;;;;;;;;;;;2073981;28;19926;-49
2021/11/25 00:23:52;;;;;;;;;;;;;;;;;;2073056;28;19987;-48
2021/11/25 00:24:53;;;;;;;;;;;;;;;;;;2071629;28;19925;-52
2021/11/25 00:25:54;;;;;;;;;;;;;;;;;;2078474;28;20012;-51
2021/11/25 00:26:55;;;;;;;;;;;;;;;;;;2081138;28;19929;-49
2021/11/25 00:27:56;;;;;;;;;;;;;;;;;;2075406;28;20029;-49
2021/11/25 00:28:57;;;;;;;;;;;;;;;;;;2078855;28;19967;-48
2021/11/25 00:29:58;;;;;;;;;;;;;;;;;;2081290;28;20055;-49
2021/11/25 00:30:59;;;;;;;;;;;;;;;;;;2075689;28;19930;-48
2021/11/25 00:32:00;;;;;;;;;;;;;;;;;;2079556;28;19964;-49
2021/11/25 00:33:01;;;;;;;;;;;;;;;;;;2081329;28;20363;-50
2021/11/25 00:34:01;;;;;;;;;;;;;;;;;;2072674;28;19991;-50
2021/11/25 00:35:03;;;;;;;;;;;;;;;;;;2080786;28;19952;-50
2021/11/25 00:36:03;;;;;;;;;;;;;;;;;;2082661;28;20016;-49
2021/11/25 00:37:04;;;;;;;;;;;;;;;;;;2075533;28;20530;-50
2021/11/25 00:38:05;;;;;;;;;;;;;;;;;;2081648;28;20026;-48
2021/11/25 00:39:06;;;;;;;;;;;;;;;;;;2082661;28;20022;-49
2021/11/25 00:40:07;;;;;;;;;;;;;;;;;;2074460;28;20024;-48
2021/11/25 00:41:11;;;;;;;;;;;;;;;;;;2082648;28;19932;-48
2021/11/25 00:42:12;;;;;;;;;;;;;;;;;;2082450;28;20020;-49
2021/11/25 00:43:14;;;;;;;;;;;;;;;;;;2075348;28;19933;-50
2021/11/25 00:44:14;;;;;;;;;;;;;;;;;;2082442;28;19932;-48
2021/11/25 00:45:15;;;;;;;;;;;;;;;;;;2082637;28;19929;-48
2021/11/25 00:46:17;;;;;;;;;;;;;;;;;;2075318;28;19969;-51
2021/11/25 00:47:17;;;;;;;;;;;;;;;;;;2082593;28;19929;-48
2021/11/25 00:48:18;;;;;;;;;;;;;;;;;;2081568;28;20317;-49
2021/11/25 00:49:19;;;;;;;;;;;;;;;;;;2074563;28;20012;-48
2021/11/25 00:50:20;;;;;;;;;;;;;;;;;;2074454;28;20334;-48
2021/11/25 00:51:21;;;;;;;;;;;;;;;;;;2073935;28;19961;-48
2021/11/25 00:52:24;;;;;;;;;;;;;;;;;;2077384;28;19947;-50
2021/11/25 00:53:25;;;;;;;;;;;;;;;;;;2082446;28;19965;-50
2021/11/25 00:54:26;;;;;;;;;;;;;;;;;;2079032;28;20327;-48
2021/11/25 00:55:27;;;;;;;;;;;;;;;;;;2076444;28;19940;-48
2021/11/25 00:56:28;;;;;;;;;;;;;;;;;;2074287;28;20012;-49
2021/11/25 00:57:29;;;;;;;;;;;;;;;;;;2072452;28;20915;-48
2021/11/25 00:58:30;;;;;;;;;;;;;;;;;;2080168;28;19951;-48
2021/11/25 00:59:31;;;;;;;;;;;;;;;;;;2082442;28;19944;-49
2021/11/25 01:00:31;;;;;;;;;;;;;;;;;;2077789;28;20012;-48
2021/11/25 01:01:33;;;;;;;;;;;;;;;;;;2075894;28;20393;-49
2021/11/25 01:02:34;;;;;;;;;;;;;;;;;;2074299;28;19948;-48
2021/11/25 01:03:35;;;;;;;;;;;;;;;;;;2069441;28;20549;-52
2021/11/25 01:04:36;;;;;;;;;;;;;;;;;;2080485;28;20521;-49
2021/11/25 01:05:37;;;;;;;;;;;;;;;;;;2082367;28;19968;-48
2021/11/25 01:06:38;;;;;;;;;;;;;;;;;;2076501;28;19994;-48
2021/11/25 01:07:38;;;;;;;;;;;;;;;;;;2081283;28;20019;-49
2021/11/25 01:08:39;;;;;;;;;;;;;;;;;;2082326;28;19967;-49
2021/11/25 01:09:40;;;;;;;;;;;;;;;;;;2075768;28;20004;-48
2021/11/25 01:10:41;;;;;;;;;;;;;;;;;;2081794;28;20294;-49
2021/11/25 01:11:42;;;;;;;;;;;;;;;;;;2082487;28;20024;-49
2021/11/25 01:12:43;;;;;;;;;;;;;;;;;;2075210;28;20298;-49
2021/11/25 01:13:44;;;;;;;;;;;;;;;;;;2082150;28;20413;-49
2021/11/25 01:14:45;;;;;;;;;;;;;;;;;;2082526;28;19935;-49
2021/11/25 01:15:46;;;;;;;;;;;;;;;;;;2075324;28;20021;-49
2021/11/25 01:16:47;;;;;;;;;;;;;;;;;;2082392;28;20357;-52
2021/11/25 01:17:47;;;;;;;;;;;;;;;;;;2082301;28;20002;-48
2021/11/25 01:18:48;;;;;;;;;;;;;;;;;;2075306;28;20413;-48
2021/11/25 01:19:49;;;;;;;;;;;;;;;;;;2082348;28;20012;-49
2021/11/25 01:20:50;;;;;;;;;;;;;;;;;;2082631;28;19932;-48
2021/11/25 01:21:51;;;;;;;;;;;;;;;;;;2075165;28;19929;-50
2021/11/25 01:22:52;;;;;;;;;;;;;;;;;;2082396;28;19925;-48
2021/11/25 01:23:53;;;;;;;;;;;;;;;;;;2081594;28;20008;-50
2021/11/25 01:24:54;;;;;;;;;;;;;;;;;;2076061;28;20032;-48
2021/11/25 01:25:55;;;;;;;;;;;;;;;;;;2082278;28;19929;-49
2021/11/25 01:26:56;;;;;;;;;;;;;;;;;;2080633;28;20050;-49
2021/11/25 01:27:57;;;;;;;;;;;;;;;;;;2076669;28;20068;-49
2021/11/25 01:28:57;;;;;;;;;;;;;;;;;;2082234;28;20335;-49
2021/11/25 01:29:58;;;;;;;;;;;;;;;;;;2076525;28;19933;-48
2021/11/25 01:31:00;;;;;;;;;;;;;;;;;;2075959;28;20016;-49
2021/11/25 01:32:01;;;;;;;;;;;;;;;;;;2074121;28;19932;-49
2021/11/25 01:33:02;;;;;;;;;;;;;;;;;;2072626;28;20028;-49
2021/11/25 01:34:03;;;;;;;;;;;;;;;;;;2076581;28;19987;-49
2021/11/25 01:35:04;;;;;;;;;;;;;;;;;;2074110;28;19960;-49
2021/11/25 01:36:05;;;;;;;;;;;;;;;;;;2072540;28;20286;-50
2021/11/25 01:37:06;;;;;;;;;;;;;;;;;;2079585;28;20012;-52
2021/11/25 01:38:08;;;;;;;;;;;;;;;;;;2082204;28;19952;-50
2021/11/25 01:39:09;;;;;;;;;;;;;;;;;;2077417;28;19929;-48
2021/11/25 01:40:10;;;;;;;;;;;;;;;;;;2080025;28;19925;-49
2021/11/25 01:41:12;;;;;;;;;;;;;;;;;;2082350;28;19925;-49
2021/11/25 01:42:13;;;;;;;;;;;;;;;;;;2076453;28;20009;-49
2021/11/25 01:43:14;;;;;;;;;;;;;;;;;;2080992;28;20341;-48
2021/11/25 01:44:15;;;;;;;;;;;;;;;;;;2082110;28;20454;-49
2021/11/25 01:45:16;;;;;;;;;;;;;;;;;;2075368;28;19944;-51
2021/11/25 01:46:17;;;;;;;;;;;;;;;;;;2081473;28;19999;-48
2021/11/25 01:47:18;;;;;;;;;;;;;;;;;;2082050;28;20068;-48
2021/11/25 01:48:19;;;;;;;;;;;;;;;;;;2075200;28;19925;-49
2021/11/25 01:49:20;;;;;;;;;;;;;;;;;;2082207;28;19925;-45
2021/11/25 01:50:21;;;;;;;;;;;;;;;;;;2082272;28;19925;-44
2021/11/25 01:51:21;;;;;;;;;;;;;;;;;;2075209;28;19925;-44
2021/11/25 01:52:22;;;;;;;;;;;;;;;;;;2082041;28;19925;-44
2021/11/25 01:53:24;;;;;;;;;;;;;;;;;;2082135;28;19925;-44
2021/11/25 01:54:24;;;;;;;;;;;;;;;;;;2075124;28;20391;-44
2021/11/25 01:55:25;;;;;;;;;;;;;;;;;;2065823;28;19933;-44
2021/11/25 01:56:26;;;;;;;;;;;;;;;;;;2065784;28;20425;-44
2021/11/25 01:57:27;;;;;;;;;;;;;;;;;;2074336;28;19932;-44
2021/11/25 01:58:28;;;;;;;;;;;;;;;;;;2081998;28;20020;-44
2021/11/25 01:59:29;;;;;;;;;;;;;;;;;;2081454;28;19929;-45
2021/11/25 02:00:30;;;;;;;;;;;;;;;;;;2075175;28;19936;-44
2021/11/25 02:01:33;;;;;;;;;;;;;;;;;;2074064;28;20262;-44
2021/11/25 02:02:35;;;;;;;;;;;;;;;;;;2073431;28;19951;-44
2021/11/25 02:03:36;;;;;;;;;;;;;;;;;;2072754;28;19979;-44
2021/11/25 02:04:37;;;;;;;;;;;;;;;;;;2073918;28;19929;-44
2021/11/25 02:05:38;;;;;;;;;;;;;;;;;;2072565;28;20346;-44
2021/11/25 02:06:38;;;;;;;;;;;;;;;;;;2074871;28;19925;-44
2021/11/25 02:07:39;;;;;;;;;;;;;;;;;;2073748;28;20397;-44
2021/11/25 02:08:40;;;;;;;;;;;;;;;;;;2071998;28;20036;-45
2021/11/25 02:09:41;;;;;;;;;;;;;;;;;;2079416;28;19932;-44
2021/11/25 02:10:42;;;;;;;;;;;;;;;;;;2082087;28;19925;-44
2021/11/25 02:11:43;;;;;;;;;;;;;;;;;;2077486;28;19982;-44
2021/11/25 02:12:44;;;;;;;;;;;;;;;;;;2079455;28;20036;-44
2021/11/25 02:13:45;;;;;;;;;;;;;;;;;;2082234;28;19948;-48
2021/11/25 02:14:45;;;;;;;;;;;;;;;;;;2077185;28;20036;-48
2021/11/25 02:15:47;;;;;;;;;;;;;;;;;;2079992;28;19976;-50
2021/11/25 02:16:50;;;;;;;;;;;;;;;;;;2081927;28;20345;-49
2021/11/25 02:17:51;;;;;;;;;;;;;;;;;;2076035;28;19936;-49
2021/11/25 02:18:52;;;;;;;;;;;;;;;;;;2080950;28;20135;-50
2021/11/25 02:19:52;;;;;;;;;;;;;;;;;;2081954;28;20429;-48
2021/11/25 02:20:53;;;;;;;;;;;;;;;;;;2077164;28;19929;-48
2021/11/25 02:21:54;;;;;;;;;;;;;;;;;;2073770;28;20055;-49
2021/11/25 02:22:55;;;;;;;;;;;;;;;;;;2073780;28;19929;-48
2021/11/25 02:23:56;;;;;;;;;;;;;;;;;;2074575;28;20019;-48
2021/11/25 02:24:57;;;;;;;;;;;;;;;;;;2073741;28;19980;-48
2021/11/25 02:25:58;;;;;;;;;;;;;;;;;;2076183;28;20024;-48
2021/11/25 02:26:59;;;;;;;;;;;;;;;;;;2076252;28;19926;-49
2021/11/25 02:28:00;;;;;;;;;;;;;;;;;;2065571;28;20280;-48
2021/11/25 02:29:01;;;;;;;;;;;;;;;;;;2065687;28;19933;-48
2021/11/25 02:30:02;;;;;;;;;;;;;;;;;;2073346;28;20016;-49
2021/11/25 02:31:03;;;;;;;;;;;;;;;;;;2081987;28;20432;-49
2021/11/25 02:32:03;;;;;;;;;;;;;;;;;;2081755;28;20323;-49
2021/11/25 02:33:04;;;;;;;;;;;;;;;;;;2074748;28;19933;-48
2021/11/25 02:34:06;;;;;;;;;;;;;;;;;;2082094;28;20015;-50
2021/11/25 02:35:06;;;;;;;;;;;;;;;;;;2081245;28;20008;-44
2021/11/25 02:36:07;;;;;;;;;;;;;;;;;;2075854;28;20264;-44
2021/11/25 02:37:08;;;;;;;;;;;;;;;;;;2081725;28;20449;-44
2021/11/25 02:38:09;;;;;;;;;;;;;;;;;;2080483;28;19925;-46
2021/11/25 02:39:10;;;;;;;;;;;;;;;;;;2074945;28;19926;-44
2021/11/25 02:40:11;;;;;;;;;;;;;;;;;;2073667;28;20397;-44
2021/11/25 02:41:12;;;;;;;;;;;;;;;;;;2072575;28;19925;-44
2021/11/25 02:42:13;;;;;;;;;;;;;;;;;;2075530;28;19973;-44
2021/11/25 02:43:14;;;;;;;;;;;;;;;;;;2073609;28;19925;-44
2021/11/25 02:44:15;;;;;;;;;;;;;;;;;;2072021;28;20243;-45
2021/11/25 02:45:16;;;;;;;;;;;;;;;;;;2077113;28;19929;-44
2021/11/25 02:46:17;;;;;;;;;;;;;;;;;;2082001;28;20271;-44
2021/11/25 02:47:18;;;;;;;;;;;;;;;;;;2077319;28;19925;-45
2021/11/25 02:48:19;;;;;;;;;;;;;;;;;;2075485;28;19948;-44
2021/11/25 02:49:20;;;;;;;;;;;;;;;;;;2073613;28;20028;-44
2021/11/25 02:50:21;;;;;;;;;;;;;;;;;;2072489;28;19926;-44
2021/11/25 02:51:22;;;;;;;;;;;;;;;;;;2079577;28;20015;-44
2021/11/25 02:52:25;;;;;;;;;;;;;;;;;;2081685;28;20019;-44
2021/11/25 02:53:26;;;;;;;;;;;;;;;;;;2075965;28;20013;-44
2021/11/25 02:54:27;;;;;;;;;;;;;;;;;;2080693;28;19967;-44
2021/11/25 02:55:28;;;;;;;;;;;;;;;;;;2081712;28;19925;-44
2021/11/25 02:56:29;;;;;;;;;;;;;;;;;;2075256;28;20019;-44
2021/11/25 02:57:30;;;;;;;;;;;;;;;;;;2080233;28;19929;-45
2021/11/25 02:58:31;;;;;;;;;;;;;;;;;;2081705;28;20091;-44
2021/11/25 02:59:32;;;;;;;;;;;;;;;;;;2076600;28;20433;-45
2021/11/25 03:00:32;;;;;;;;;;;;;;;;;;2073401;28;20044;-44
2021/11/25 03:01:33;;;;;;;;;;;;;;;;;;2073451;28;19936;-44
2021/11/25 03:02:34;;;;;;;;;;;;;;;;;;2074291;28;19932;-44
2021/11/25 03:03:35;;;;;;;;;;;;;;;;;;2072030;28;19930;-44
2021/11/25 03:04:36;;;;;;;;;;;;;;;;;;2073506;28;19947;-45
2021/11/25 03:05:37;;;;;;;;;;;;;;;;;;2073812;28;19940;-44
2021/11/25 03:06:38;;;;;;;;;;;;;;;;;;2081555;28;19931;-45
2021/11/25 03:07:39;;;;;;;;;;;;;;;;;;2081645;28;20329;-44
2021/11/25 03:08:40;;;;;;;;;;;;;;;;;;2073005;28;19975;-44
2021/11/25 03:09:41;;;;;;;;;;;;;;;;;;2081644;28;19948;-44
2021/11/25 03:10:41;;;;;;;;;;;;;;;;;;2080730;28;20335;-44
2021/11/25 03:11:43;;;;;;;;;;;;;;;;;;2075498;28;19925;-44
2021/11/25 03:12:43;;;;;;;;;;;;;;;;;;2081607;28;20395;-44
2021/11/25 03:13:44;;;;;;;;;;;;;;;;;;2080137;28;19925;-45
2021/11/25 03:14:45;;;;;;;;;;;;;;;;;;2076034;28;20356;-44
2021/11/25 03:15:46;;;;;;;;;;;;;;;;;;2081574;28;19925;-46
2021/11/25 03:16:47;;;;;;;;;;;;;;;;;;2079176;28;19975;-44
2021/11/25 03:17:48;;;;;;;;;;;;;;;;;;2076130;28;20135;-45
2021/11/25 03:18:49;;;;;;;;;;;;;;;;;;2081653;28;19932;-44
2021/11/25 03:19:50;;;;;;;;;;;;;;;;;;2077874;28;20015;-44
2021/11/25 03:20:51;;;;;;;;;;;;;;;;;;2078541;28;19925;-45
2021/11/25 03:21:52;;;;;;;;;;;;;;;;;;2081496;28;20007;-44
2021/11/25 03:22:53;;;;;;;;;;;;;;;;;;2071708;28;19933;-44
2021/11/25 03:23:54;;;;;;;;;;;;;;;;;;2078982;28;19937;-44
2021/11/25 03:24:54;;;;;;;;;;;;;;;;;;2081568;28;20379;-44
2021/11/25 03:25:55;;;;;;;;;;;;;;;;;;2076929;28;19926;-44
2021/11/25 03:26:56;;;;;;;;;;;;;;;;;;2074906;28;19925;-45
2021/11/25 03:27:57;;;;;;;;;;;;;;;;;;2073303;28;19925;-44
2021/11/25 03:29:00;;;;;;;;;;;;;;;;;;2072895;28;20016;-44
2021/11/25 03:30:02;;;;;;;;;;;;;;;;;;2074520;28;19996;-48
2021/11/25 03:31:03;;;;;;;;;;;;;;;;;;2073283;28;20015;-48
2021/11/25 03:32:04;;;;;;;;;;;;;;;;;;2072253;28;19933;-49
2021/11/25 03:33:04;;;;;;;;;;;;;;;;;;2080821;28;20012;-51
2021/11/25 03:34:05;;;;;;;;;;;;;;;;;;2081712;28;19929;-45
2021/11/25 03:35:07;;;;;;;;;;;;;;;;;;2074471;28;20405;-45
2021/11/25 03:36:08;;;;;;;;;;;;;;;;;;2081457;28;20028;-45
2021/11/25 03:37:09;;;;;;;;;;;;;;;;;;2081491;28;20027;-45
2021/11/25 03:38:10;;;;;;;;;;;;;;;;;;2073341;28;19926;-44
2021/11/25 03:39:11;;;;;;;;;;;;;;;;;;2081384;28;20009;-45
2021/11/25 03:40:12;;;;;;;;;;;;;;;;;;2081568;28;19953;-45
2021/11/25 03:41:13;;;;;;;;;;;;;;;;;;2074344;28;20279;-44
2021/11/25 03:42:13;;;;;;;;;;;;;;;;;;2081356;28;19925;-45
2021/11/25 03:43:15;;;;;;;;;;;;;;;;;;2081422;28;19925;-44
2021/11/25 03:44:15;;;;;;;;;;;;;;;;;;2074115;28;19933;-45
2021/11/25 03:45:16;;;;;;;;;;;;;;;;;;2081362;28;19929;-44
2021/11/25 03:46:17;;;;;;;;;;;;;;;;;;2080485;28;20356;-45
2021/11/25 03:47:18;;;;;;;;;;;;;;;;;;2075421;28;19936;-49
2021/11/25 03:48:22;;;;;;;;;;;;;;;;;;2081404;28;19944;-49
2021/11/25 03:49:22;;;;;;;;;;;;;;;;;;2079749;28;19983;-50
2021/11/25 03:50:23;;;;;;;;;;;;;;;;;;2076256;28;19933;-48
2021/11/25 03:51:25;;;;;;;;;;;;;;;;;;2081514;28;20006;-48
2021/11/25 03:52:25;;;;;;;;;;;;;;;;;;2078303;28;19975;-49
2021/11/25 03:53:26;;;;;;;;;;;;;;;;;;2075261;28;20275;-52
2021/11/25 03:54:27;;;;;;;;;;;;;;;;;;2073373;28;20036;-49
2021/11/25 03:55:28;;;;;;;;;;;;;;;;;;2071149;28;19925;-49
2021/11/25 03:56:29;;;;;;;;;;;;;;;;;;2078162;28;20033;-49
2021/11/25 03:57:30;;;;;;;;;;;;;;;;;;2081293;28;20377;-49
2021/11/25 03:58:31;;;;;;;;;;;;;;;;;;2076946;28;20024;-50
2021/11/25 03:59:32;;;;;;;;;;;;;;;;;;2078659;28;20382;-48
2021/11/25 04:00:33;;;;;;;;;;;;;;;;;;2081265;28;20374;-50
2021/11/25 04:01:34;;;;;;;;;;;;;;;;;;2076833;28;19929;-48
2021/11/25 04:02:35;;;;;;;;;;;;;;;;;;2074435;28;19932;-49
2021/11/25 04:03:36;;;;;;;;;;;;;;;;;;2065032;28;19936;-48
2021/11/25 04:04:36;;;;;;;;;;;;;;;;;;2068447;28;20399;-49
2021/11/25 04:05:37;;;;;;;;;;;;;;;;;;2079849;28;19975;-50
2021/11/25 04:06:38;;;;;;;;;;;;;;;;;;2081191;28;20368;-49
2021/11/25 04:07:39;;;;;;;;;;;;;;;;;;2076544;28;19926;-49
2021/11/25 04:08:40;;;;;;;;;;;;;;;;;;2073886;28;20355;-50
2021/11/25 04:09:41;;;;;;;;;;;;;;;;;;2074734;28;19975;-50
2021/11/25 04:10:42;;;;;;;;;;;;;;;;;;2073523;28;19929;-48
2021/11/25 04:11:43;;;;;;;;;;;;;;;;;;2082665;28;19925;-49
2021/11/25 04:12:44;;;;;;;;;;;;;;;;;;2082633;28;19929;-49
2021/11/25 04:13:45;;;;;;;;;;;;;;;;;;2075760;28;19979;-48
2021/11/25 04:14:45;;;;;;;;;;;;;;;;;;2082636;28;20016;-48
2021/11/25 04:15:46;;;;;;;;;;;;;;;;;;2082659;28;19925;-48
2021/11/25 04:16:47;;;;;;;;;;;;;;;;;;2075598;28;20432;-50
2021/11/25 04:17:48;;;;;;;;;;;;;;;;;;2082665;28;19929;-49
2021/11/25 04:18:49;;;;;;;;;;;;;;;;;;2076868;28;20015;-49
2021/11/25 04:19:50;;;;;;;;;;;;;;;;;;2075272;28;19980;-48
2021/11/25 04:20:51;;;;;;;;;;;;;;;;;;2074665;28;19932;-50
2021/11/25 04:21:52;;;;;;;;;;;;;;;;;;2074064;28;20016;-51
2021/11/25 04:22:53;;;;;;;;;;;;;;;;;;2075892;28;20576;-49
2021/11/25 04:23:54;;;;;;;;;;;;;;;;;;2074706;28;20008;-50
2021/11/25 04:24:55;;;;;;;;;;;;;;;;;;2074250;28;19925;-49
2021/11/25 04:25:56;;;;;;;;;;;;;;;;;;2076883;28;20294;-50
2021/11/25 04:26:57;;;;;;;;;;;;;;;;;;2082697;28;19986;-50
2021/11/25 04:27:58;;;;;;;;;;;;;;;;;;2080783;28;20321;-50
2021/11/25 04:28:59;;;;;;;;;;;;;;;;;;2077964;28;20003;-48
2021/11/25 04:30:05;;;;;;;;;;;;;;;;;;2082602;28;20343;-48
2021/11/25 04:36:23;;;;;;;;;;;;;;;;;;2082719;28;19925;-49
2021/11/25 04:37:24;;;;;;;;;;;;;;;;;;2075684;28;19925;-50
2021/11/25 04:38:25;;;;;;;;;;;;;;;;;;2081914;28;19929;-48
2021/11/25 04:39:26;;;;;;;;;;;;;;;;;;2082630;28;20408;-53
2021/11/25 04:40:27;;;;;;;;;;;;;;;;;;2075546;28;20390;-49
2021/11/25 04:41:28;;;;;;;;;;;;;;;;;;2082538;28;20360;-49
2021/11/25 04:42:29;;;;;;;;;;;;;;;;;;2082508;28;20075;-50
2021/11/25 04:43:30;;;;;;;;;;;;;;;;;;2076076;28;19925;-49
2021/11/25 04:44:31;;;;;;;;;;;;;;;;;;2074451;28;20035;-48
2021/11/25 04:45:32;;;;;;;;;;;;;;;;;;2074503;28;20228;-49
2021/11/25 04:46:33;;;;;;;;;;;;;;;;;;2075084;28;20291;-49
2021/11/25 04:47:34;;;;;;;;;;;;;;;;;;2082389;28;20015;-48
2021/11/25 04:48:36;;;;;;;;;;;;;;;;;;2081904;28;20012;-48
2021/11/25 04:49:36;;;;;;;;;;;;;;;;;;2076164;28;19934;-51
2021/11/25 04:50:38;;;;;;;;;;;;;;;;;;2082524;28;19925;-49
2021/11/25 04:51:39;;;;;;;;;;;;;;;;;;2081091;28;20071;-48
2021/11/25 04:52:40;;;;;;;;;;;;;;;;;;2076938;28;20020;-49
2021/11/25 04:53:41;;;;;;;;;;;;;;;;;;2082554;28;19948;-48
2021/11/25 04:54:42;;;;;;;;;;;;;;;;;;2080040;28;20062;-48
2021/11/25 04:55:43;;;;;;;;;;;;;;;;;;2078301;28;19925;-50
2021/11/25 04:56:44;;;;;;;;;;;;;;;;;;2082422;28;20516;-49
2021/11/25 04:57:45;;;;;;;;;;;;;;;;;;2078475;28;20509;-50
2021/11/25 04:58:46;;;;;;;;;;;;;;;;;;2077008;28;19929;-49
2021/11/25 04:59:47;;;;;;;;;;;;;;;;;;2074468;28;20004;-49
2021/11/25 05:00:48;;;;;;;;;;;;;;;;;;2072782;28;19925;-49
2021/11/25 05:01:49;;;;;;;;;;;;;;;;;;2079959;28;20133;-49
2021/11/25 05:02:50;;;;;;;;;;;;;;;;;;2079936;28;19929;-50
2021/11/25 05:03:51;;;;;;;;;;;;;;;;;;2068856;28;20013;-50
2021/11/25 05:04:52;;;;;;;;;;;;;;;;;;2080149;28;19929;-50
2021/11/25 05:05:54;;;;;;;;;;;;;;;;;;2082572;28;20016;-49
2021/11/25 05:06:55;;;;;;;;;;;;;;;;;;2077618;28;20268;-50
2021/11/25 05:07:56;;;;;;;;;;;;;;;;;;2074997;28;20410;-48
2021/11/25 05:08:57;;;;;;;;;;;;;;;;;;2074230;28;19926;-50
2021/11/25 05:09:58;;;;;;;;;;;;;;;;;;2072086;28;19941;-49
2021/11/25 05:10:59;;;;;;;;;;;;;;;;;;2080295;28;20135;-48
2021/11/25 05:12:00;;;;;;;;;;;;;;;;;;2082315;28;19933;-48
2021/11/25 05:13:01;;;;;;;;;;;;;;;;;;2077439;28;19929;-49
2021/11/25 05:14:01;;;;;;;;;;;;;;;;;;2074390;28;19926;-48
2021/11/25 05:15:02;;;;;;;;;;;;;;;;;;2079192;28;19931;-50
2021/11/25 05:16:04;;;;;;;;;;;;;;;;;;2075435;28;19932;-49
2021/11/25 05:17:04;;;;;;;;;;;;;;;;;;2082237;28;20023;-50
2021/11/25 05:18:05;;;;;;;;;;;;;;;;;;2082466;28;20382;-49
2021/11/25 05:19:06;;;;;;;;;;;;;;;;;;2075124;28;19934;-49
2021/11/25 05:20:07;;;;;;;;;;;;;;;;;;2081997;28;19925;-48
2021/11/25 05:21:08;;;;;;;;;;;;;;;;;;2082010;28;19924;-50
2021/11/25 05:22:09;;;;;;;;;;;;;;;;;;2075042;28;20438;-49
2021/11/25 05:23:10;;;;;;;;;;;;;;;;;;2082351;28;19933;-49
2021/11/25 05:24:11;;;;;;;;;;;;;;;;;;2081943;28;19925;-45
2021/11/25 05:25:12;;;;;;;;;;;;;;;;;;2076267;28;20032;-45
2021/11/25 05:26:13;;;;;;;;;;;;;;;;;;2082203;28;20019;-44
2021/11/25 05:27:14;;;;;;;;;;;;;;;;;;2080846;28;20011;-44
2021/11/25 05:28:15;;;;;;;;;;;;;;;;;;2076685;28;20263;-44
2021/11/25 05:29:17;;;;;;;;;;;;;;;;;;2082375;28;20016;-45
2021/11/25 05:30:18;;;;;;;;;;;;;;;;;;2079704;28;20019;-44
2021/11/25 05:31:20;;;;;;;;;;;;;;;;;;2074914;28;20020;-44
2021/11/25 05:32:21;;;;;;;;;;;;;;;;;;2074006;28;19961;-45
2021/11/25 05:33:22;;;;;;;;;;;;;;;;;;2072069;28;20404;-46
2021/11/25 05:34:23;;;;;;;;;;;;;;;;;;2079553;28;19924;-44
2021/11/25 05:35:24;;;;;;;;;;;;;;;;;;2082243;28;19925;-45
2021/11/25 05:36:25;;;;;;;;;;;;;;;;;;2077180;28;20004;-45
2021/11/25 05:37:26;;;;;;;;;;;;;;;;;;2075679;28;19930;-45
2021/11/25 05:38:31;;;;;;;;;;;;;;;;;;2074143;28;19930;-44
2021/11/25 05:39:32;;;;;;;;;;;;;;;;;;2073058;28;19930;-49
2021/11/25 05:40:33;;;;;;;;;;;;;;;;;;2074938;28;19929;-48
2021/11/25 05:41:34;;;;;;;;;;;;;;;;;;2073952;28;19929;-48
2021/11/25 05:42:35;;;;;;;;;;;;;;;;;;2074349;28;20020;-49
2021/11/25 05:43:37;;;;;;;;;;;;;;;;;;2074314;28;19963;-48
2021/11/25 05:44:37;;;;;;;;;;;;;;;;;;2074324;28;20024;-49
2021/11/25 05:45:38;;;;;;;;;;;;;;;;;;2072904;28;19952;-49
2021/11/25 05:46:39;;;;;;;;;;;;;;;;;;2082051;28;19925;-49
2021/11/25 05:47:41;;;;;;;;;;;;;;;;;;2081937;28;19932;-48
2021/11/25 05:48:42;;;;;;;;;;;;;;;;;;2075516;28;20020;-45
2021/11/25 05:49:43;;;;;;;;;;;;;;;;;;2082084;28;20263;-44
2021/11/25 05:50:44;;;;;;;;;;;;;;;;;;2082109;28;19933;-44
2021/11/25 05:51:45;;;;;;;;;;;;;;;;;;2075225;28;19925;-44
2021/11/25 05:52:46;;;;;;;;;;;;;;;;;;2082015;28;19930;-44
2021/11/25 05:53:47;;;;;;;;;;;;;;;;;;2082285;28;20325;-45
2021/11/25 05:54:48;;;;;;;;;;;;;;;;;;2073912;28;20074;-45
2021/11/25 05:55:49;;;;;;;;;;;;;;;;;;2074073;28;19929;-44
2021/11/25 05:56:49;;;;;;;;;;;;;;;;;;2073656;28;19932;-49
2021/11/25 05:57:51;;;;;;;;;;;;;;;;;;2075146;28;20430;-49
2021/11/25 05:58:51;;;;;;;;;;;;;;;;;;2074129;28;20059;-44
2021/11/25 05:59:52;;;;;;;;;;;;;;;;;;2073459;28;19932;-45
2021/11/25 06:00:53;;;;;;;;;;;;;;;;;;2075196;28;19925;-45
2021/11/25 06:01:57;;;;;;;;;;;;;;;;;;2073898;28;19925;-44
2021/11/25 06:02:58;;;;;;;;;;;;;;;;;;2070216;28;19925;-45
2021/11/25 06:03:59;;;;;;;;;;;;;;;;;;2078468;28;19979;-44
2021/11/25 06:05:00;;;;;;;;;;;;;;;;;;2082173;28;19975;-45
2021/11/25 06:06:01;;;;;;;;;;;;;;;;;;2077585;28;20016;-44
2021/11/25 06:07:02;;;;;;;;;;;;;;;;;;2079261;28;20302;-44
2021/11/25 06:08:03;;;;;;;;;;;;;;;;;;2082026;28;20020;-46
2021/11/25 06:09:04;;;;;;;;;;;;;;;;;;2077491;28;20012;-44
2021/11/25 06:10:05;;;;;;;;;;;;;;;;;;2075664;28;19933;-45
2021/11/25 06:11:06;;;;;;;;;;;;;;;;;;2073542;28;20383;-44
2021/11/25 06:12:07;;;;;;;;;;;;;;;;;;2073163;28;19925;-45
2021/11/25 06:13:08;;;;;;;;;;;;;;;;;;2080034;28;20008;-45
2021/11/25 06:14:09;;;;;;;;;;;;;;;;;;2081976;28;19925;-44
2021/11/25 06:15:10;;;;;;;;;;;;;;;;;;2076207;28;20024;-45
2021/11/25 06:16:11;;;;;;;;;;;;;;;;;;2080889;28;20280;-45
2021/11/25 06:17:30;;;;;;;;;;;;;;;;;;2081967;28;19933;-44
2021/11/25 06:18:31;;;;;;;;;;;;;;;;;;2075039;28;20032;-45
2021/11/25 06:19:32;;;;;;;;;;;;;;;;;;2073813;28;19935;-44
2021/11/25 06:20:33;;;;;;;;;;;;;;;;;;2073264;28;19937;-45
2021/11/25 06:21:34;;;;;;;;;;;;;;;;;;2075038;28;19929;-44
2021/11/25 06:22:35;;;;;;;;;;;;;;;;;;2073739;28;20401;-45
2021/11/25 06:23:36;;;;;;;;;;;;;;;;;;2073258;28;20473;-45
2021/11/25 06:24:37;;;;;;;;;;;;;;;;;;2076330;28;20445;-45
2021/11/25 06:25:38;;;;;;;;;;;;;;;;;;2081939;28;19925;-46
2021/11/25 06:26:42;;;;;;;;;;;;;;;;;;2079565;28;20051;-46
2021/11/25 06:27:43;;;;;;;;;;;;;;;;;;2077990;28;19930;-45
2021/11/25 06:28:44;;;;;;;;;;;;;;;;;;2081840;28;20438;-45
2021/11/25 06:29:45;;;;;;;;;;;;;;;;;;2077559;28;19972;-45
2021/11/25 06:30:46;;;;;;;;;;;;;;;;;;2079260;28;19936;-45
2021/11/25 06:31:47;;;;;;;;;;;;;;;;;;2081970;28;20024;-45
2021/11/25 06:32:48;;;;;;;;;;;;;;;;;;2077231;28;19925;-45
2021/11/25 06:33:49;;;;;;;;;;;;;;;;;;2079336;28;20020;-44
2021/11/25 06:34:50;;;;;;;;;;;;;;;;;;2081833;28;19932;-45
2021/11/25 06:35:51;;;;;;;;;;;;;;;;;;2077098;28;20016;-44
2021/11/25 06:36:51;;;;;;;;;;;;;;;;;;2073453;28;20416;-45
2021/11/25 06:37:53;;;;;;;;;;;;;;;;;;2073649;28;19952;-44
2021/11/25 06:38:54;;;;;;;;;;;;;;;;;;2074978;28;19956;-48
2021/11/25 06:39:54;;;;;;;;;;;;;;;;;;2065561;28;20001;-49
2021/11/25 06:40:55;;;;;;;;;;;;;;;;;;2065662;28;19926;-50
2021/11/25 06:41:56;;;;;;;;;;;;;;;;;;2073498;28;20099;-49
2021/11/25 06:42:58;;;;;;;;;;;;;;;;;;2073735;28;20016;-49
2021/11/25 06:43:58;;;;;;;;;;;;;;;;;;2073864;28;19933;-45
2021/11/25 06:44:59;;;;;;;;;;;;;;;;;;2073625;28;19929;-46
2021/11/25 06:46:00;;;;;;;;;;;;;;;;;;2081848;28;20055;-45
2021/11/25 06:47:01;;;;;;;;;;;;;;;;;;2080806;28;19925;-45
2021/11/25 06:48:02;;;;;;;;;;;;;;;;;;2075002;28;19925;-45
2021/11/25 06:49:03;;;;;;;;;;;;;;;;;;2073632;28;19933;-45
2021/11/25 06:50:04;;;;;;;;;;;;;;;;;;2073214;28;20012;-46
2021/11/25 06:51:05;;;;;;;;;;;;;;;;;;2075031;28;20359;-50
2021/11/25 06:52:06;;;;;;;;;;;;;;;;;;2073683;28;20017;-49
2021/11/25 06:53:07;;;;;;;;;;;;;;;;;;2072592;28;19929;-49
2021/11/25 06:54:08;;;;;;;;;;;;;;;;;;2075538;28;20509;-49
2021/11/25 06:55:09;;;;;;;;;;;;;;;;;;2073586;28;20024;-48
2021/11/25 06:56:10;;;;;;;;;;;;;;;;;;2071850;28;19929;-49
2021/11/25 06:57:11;;;;;;;;;;;;;;;;;;2076664;28;20039;-48
2021/11/25 06:58:12;;;;;;;;;;;;;;;;;;2081734;28;20370;-49
2021/11/25 06:59:13;;;;;;;;;;;;;;;;;;2077191;28;20008;-49
2021/11/25 07:00:15;;;;;;;;;;;;;;;;;;2075487;28;19973;-50
2021/11/25 07:01:16;;;;;;;;;;;;;;;;;;2073553;28;19930;-49
2021/11/25 07:02:17;;;;;;;;;;;;;;;;;;2072246;28;19941;-49